createdAt,value
2017-10-29T00:00:50.753Z,0
2017-10-29T00:01:51.355Z,0
2017-10-29T00:02:51.975Z,0
2017-10-29T00:03:52.605Z,0
2017-10-29T00:04:53.212Z,0
2017-10-29T00:05:53.874Z,0
2017-10-29T00:06:54.508Z,0
2017-10-29T00:07:55.113Z,0
2017-10-29T00:08:55.720Z,0
2017-10-29T00:09:56.356Z,0
2017-10-29T00:10:56.967Z,0
2017-10-29T00:11:57.569Z,0
2017-10-29T00:12:58.176Z,0
2017-10-29T00:13:58.782Z,0
2017-10-29T00:14:59.386Z,0
2017-10-29T00:15:59.993Z,0
2017-10-29T00:17:00.600Z,0
2017-10-29T00:18:01.205Z,0
2017-10-29T00:19:01.812Z,0
2017-10-29T00:20:02.421Z,0
2017-10-29T00:21:03.030Z,0
2017-10-29T00:22:03.633Z,0
2017-10-29T00:23:04.240Z,0
2017-10-29T00:24:04.877Z,0
2017-10-29T00:25:05.498Z,0
2017-10-29T00:26:06.093Z,0
2017-10-29T00:27:06.698Z,0
2017-10-29T00:28:07.315Z,0
2017-10-29T00:29:07.917Z,0
2017-10-29T00:30:08.519Z,0
2017-10-29T00:31:09.124Z,0
2017-10-29T00:32:09.730Z,0
2017-10-29T00:33:10.336Z,0
2017-10-29T00:34:10.947Z,0
2017-10-29T00:35:11.550Z,0
2017-10-29T00:36:12.165Z,0
2017-10-29T00:37:12.766Z,0
2017-10-29T00:38:13.392Z,0
2017-10-29T00:39:13.977Z,0
2017-10-29T00:40:14.582Z,0
2017-10-29T00:41:15.195Z,0
2017-10-29T00:42:15.799Z,0
2017-10-29T00:43:16.432Z,0
2017-10-29T00:44:17.038Z,0
2017-10-29T00:45:17.650Z,0
2017-10-29T00:46:18.255Z,0
2017-10-29T00:47:18.870Z,0
2017-10-29T00:48:19.503Z,0
2017-10-29T00:49:20.115Z,0
2017-10-29T00:50:20.751Z,0
2017-10-29T00:51:21.386Z,0
2017-10-29T00:52:22.024Z,0
2017-10-29T00:53:22.631Z,0
2017-10-29T00:54:23.246Z,0
2017-10-29T00:55:23.853Z,0
2017-10-29T00:56:24.452Z,0
2017-10-29T00:57:25.058Z,0
2017-10-29T00:58:25.698Z,0
2017-10-29T00:59:26.303Z,0
2017-10-29T01:00:26.909Z,0
2017-10-29T01:01:27.515Z,0
2017-10-29T01:02:28.121Z,0
2017-10-29T01:03:28.728Z,0
2017-10-29T01:04:29.334Z,0
2017-10-29T01:05:29.975Z,0
2017-10-29T01:06:30.590Z,0
2017-10-29T01:07:31.192Z,0
2017-10-29T01:08:31.795Z,0
2017-10-29T01:09:32.407Z,0
2017-10-29T01:10:33.010Z,0
2017-10-29T01:11:33.622Z,0
2017-10-29T01:12:34.230Z,0
2017-10-29T01:13:34.833Z,0
2017-10-29T01:14:35.447Z,0
2017-10-29T01:15:36.056Z,0
2017-10-29T01:16:36.664Z,0
2017-10-29T01:17:37.271Z,0
2017-10-29T01:18:37.877Z,0
2017-10-29T01:19:38.484Z,0
2017-10-29T01:20:39.094Z,0
2017-10-29T01:21:39.703Z,0
2017-10-29T01:22:40.308Z,0
2017-10-29T01:23:40.925Z,0
2017-10-29T01:24:41.520Z,0
2017-10-29T01:25:42.124Z,0
2017-10-29T01:26:42.730Z,0
2017-10-29T01:27:43.337Z,0
2017-10-29T01:28:43.942Z,0
2017-10-29T01:29:44.549Z,0
2017-10-29T01:30:45.164Z,0
2017-10-29T01:31:45.764Z,0
2017-10-29T01:32:46.369Z,0
2017-10-29T01:33:46.973Z,0
2017-10-29T01:34:47.584Z,0
2017-10-29T01:35:48.188Z,0
2017-10-29T01:36:48.795Z,0
2017-10-29T01:37:49.400Z,0
2017-10-29T01:38:50.006Z,0
2017-10-29T01:39:50.611Z,0
2017-10-29T01:40:51.218Z,0
2017-10-29T01:41:51.825Z,0
2017-10-29T01:42:52.432Z,0
2017-10-29T01:43:53.039Z,0
2017-10-29T01:44:53.647Z,0
2017-10-29T01:45:54.251Z,0
2017-10-29T01:46:54.858Z,0
2017-10-29T01:47:55.462Z,0
2017-10-29T01:48:56.071Z,0
2017-10-29T01:49:56.675Z,0
2017-10-29T01:50:57.282Z,0
2017-10-29T01:51:57.888Z,0
2017-10-29T01:52:58.499Z,0
2017-10-29T01:53:59.101Z,0
2017-10-29T01:54:59.712Z,0
2017-10-29T01:56:00.318Z,0
2017-10-29T01:57:00.938Z,0
2017-10-29T01:58:01.553Z,0
2017-10-29T01:59:02.137Z,0
2017-10-29T02:00:02.748Z,0
2017-10-29T02:01:03.354Z,0
2017-10-29T02:02:03.990Z,0
2017-10-29T02:03:04.595Z,0
2017-10-29T02:04:05.201Z,0
2017-10-29T02:05:05.808Z,0
2017-10-29T02:06:06.449Z,0
2017-10-29T02:07:07.088Z,0
2017-10-29T02:08:07.696Z,0
2017-10-29T02:09:08.300Z,0
2017-10-29T02:10:08.907Z,0
2017-10-29T02:11:09.517Z,0
2017-10-29T02:12:10.159Z,0
2017-10-29T02:13:10.760Z,0
2017-10-29T02:14:11.371Z,0
2017-10-29T02:15:12.011Z,0
2017-10-29T02:16:12.630Z,0
2017-10-29T02:17:13.228Z,0
2017-10-29T02:18:13.836Z,0
2017-10-29T02:19:14.441Z,0
2017-10-29T02:20:15.080Z,0
2017-10-29T02:21:15.713Z,0
2017-10-29T02:22:16.290Z,0
2017-10-29T02:23:16.895Z,0
2017-10-29T02:24:17.501Z,0
2017-10-29T02:25:18.111Z,0
2017-10-29T02:26:18.717Z,0
2017-10-29T02:27:19.323Z,0
2017-10-29T02:28:19.933Z,0
2017-10-29T02:29:20.545Z,0
2017-10-29T02:30:21.149Z,0
2017-10-29T02:31:21.756Z,0
2017-10-29T02:32:22.363Z,0
2017-10-29T02:33:22.968Z,0
2017-10-29T02:34:23.576Z,0
2017-10-29T02:35:24.183Z,0
2017-10-29T02:36:24.789Z,0
2017-10-29T02:37:25.395Z,0
2017-10-29T02:38:26.000Z,0
2017-10-29T02:39:26.609Z,0
2017-10-29T02:40:27.245Z,0
2017-10-29T02:41:27.849Z,0
2017-10-29T02:42:28.464Z,0
2017-10-29T02:43:29.069Z,0
2017-10-29T02:44:29.683Z,0
2017-10-29T02:45:30.288Z,0
2017-10-29T02:46:30.925Z,0
2017-10-29T02:47:31.532Z,0
2017-10-29T02:48:32.139Z,0
2017-10-29T02:49:32.750Z,0
2017-10-29T02:50:33.359Z,0
2017-10-29T02:51:33.970Z,0
2017-10-29T02:52:34.578Z,0
2017-10-29T02:53:35.187Z,0
2017-10-29T02:54:35.792Z,0
2017-10-29T02:55:36.405Z,0
2017-10-29T02:56:37.010Z,0
2017-10-29T02:57:37.618Z,0
2017-10-29T02:58:38.262Z,0
2017-10-29T02:59:38.871Z,0
2017-10-29T03:00:39.511Z,0
2017-10-29T03:01:40.117Z,0
2017-10-29T03:02:40.726Z,0
2017-10-29T03:03:41.330Z,0
2017-10-29T03:04:41.944Z,0
2017-10-29T03:05:42.546Z,0
2017-10-29T03:06:43.157Z,0
2017-10-29T03:07:43.761Z,0
2017-10-29T03:08:44.373Z,0
2017-10-29T03:09:44.975Z,0
2017-10-29T03:10:45.584Z,0
2017-10-29T03:11:46.226Z,0
2017-10-29T03:12:46.833Z,0
2017-10-29T03:13:47.436Z,0
2017-10-29T03:14:48.043Z,0
2017-10-29T03:15:48.651Z,0
2017-10-29T03:16:49.258Z,0
2017-10-29T03:17:49.865Z,0
2017-10-29T03:18:50.473Z,0
2017-10-29T03:19:51.079Z,0
2017-10-29T03:20:51.687Z,0
2017-10-29T03:21:52.293Z,0
2017-10-29T03:22:52.931Z,0
2017-10-29T03:23:53.545Z,0
2017-10-29T03:24:54.185Z,0
2017-10-29T03:25:54.790Z,0
2017-10-29T03:26:55.401Z,0
2017-10-29T03:27:56.007Z,0
2017-10-29T03:28:56.614Z,0
2017-10-29T03:29:57.221Z,0
2017-10-29T03:30:57.826Z,0
2017-10-29T03:31:58.462Z,0
2017-10-29T03:32:59.072Z,0
2017-10-29T03:33:59.676Z,0
2017-10-29T03:35:00.289Z,0
2017-10-29T03:36:00.893Z,0
2017-10-29T03:37:01.506Z,0
2017-10-29T03:38:02.112Z,0
2017-10-29T03:39:02.750Z,0
2017-10-29T03:40:03.356Z,0
2017-10-29T03:41:03.971Z,0
2017-10-29T03:42:04.613Z,0
2017-10-29T03:43:05.222Z,0
2017-10-29T03:44:05.862Z,0
2017-10-29T03:45:06.478Z,0
2017-10-29T03:46:07.079Z,0
2017-10-29T03:47:07.685Z,0
2017-10-29T03:48:08.292Z,0
2017-10-29T03:49:08.900Z,0
2017-10-29T03:50:09.508Z,0
2017-10-29T03:51:10.151Z,0
2017-10-29T03:52:10.788Z,0
2017-10-29T03:53:11.409Z,0
2017-10-29T03:54:12.033Z,0
2017-10-29T03:55:12.641Z,0
2017-10-29T03:56:13.250Z,0
2017-10-29T03:57:13.859Z,0
2017-10-29T03:58:14.463Z,0
2017-10-29T03:59:15.070Z,0
2017-10-29T04:00:15.679Z,0
2017-10-29T04:01:16.316Z,0
2017-10-29T04:02:16.922Z,0
2017-10-29T04:03:17.534Z,0
2017-10-29T04:04:18.140Z,0
2017-10-29T04:05:18.777Z,0
2017-10-29T04:06:19.431Z,0
2017-10-29T04:07:20.029Z,0
2017-10-29T04:08:20.634Z,0
2017-10-29T04:09:21.239Z,0
2017-10-29T04:10:21.846Z,0
2017-10-29T04:11:22.495Z,0
2017-10-29T04:12:23.117Z,0
2017-10-29T04:13:23.719Z,0
2017-10-29T04:14:24.355Z,0
2017-10-29T04:15:24.995Z,0
2017-10-29T04:16:25.608Z,0
2017-10-29T04:17:26.207Z,0
2017-10-29T04:18:26.815Z,0
2017-10-29T04:19:27.434Z,0
2017-10-29T04:20:28.040Z,0
2017-10-29T04:21:28.649Z,0
2017-10-29T04:22:29.267Z,0
2017-10-29T04:23:29.866Z,0
2017-10-29T04:24:30.473Z,0
2017-10-29T04:25:31.112Z,0
2017-10-29T04:26:31.719Z,0
2017-10-29T04:27:32.357Z,0
2017-10-29T04:28:32.966Z,0
2017-10-29T04:29:33.574Z,0
2017-10-29T04:30:34.178Z,0
2017-10-29T04:31:34.787Z,0
2017-10-29T04:32:35.399Z,0
2017-10-29T04:33:36.036Z,0
2017-10-29T04:34:36.642Z,0
2017-10-29T04:35:37.256Z,0
2017-10-29T04:36:37.859Z,0
2017-10-29T04:37:38.472Z,0
2017-10-29T04:38:39.076Z,0
2017-10-29T04:39:39.686Z,0
2017-10-29T04:40:40.293Z,0
2017-10-29T04:41:40.899Z,0
2017-10-29T04:42:41.513Z,0
2017-10-29T04:43:42.120Z,0
2017-10-29T04:44:42.726Z,0
2017-10-29T04:45:43.338Z,0
2017-10-29T04:46:43.941Z,0
2017-10-29T04:47:44.549Z,0
2017-10-29T04:48:45.156Z,0
2017-10-29T04:49:45.762Z,0
2017-10-29T04:50:46.369Z,0
2017-10-29T04:51:46.976Z,0
2017-10-29T04:52:47.583Z,0
2017-10-29T04:53:48.190Z,0
2017-10-29T04:54:48.801Z,0
2017-10-29T04:55:49.410Z,0
2017-10-29T04:56:50.018Z,0
2017-10-29T04:57:50.656Z,0
2017-10-29T04:58:51.265Z,0
2017-10-29T04:59:51.905Z,0
2017-10-29T05:00:52.547Z,0
2017-10-29T05:01:53.151Z,0
2017-10-29T05:02:53.759Z,0
2017-10-29T05:03:54.366Z,0
2017-10-29T05:04:54.980Z,0
2017-10-29T05:05:55.590Z,0
2017-10-29T05:06:56.194Z,0
2017-10-29T05:07:56.807Z,0
2017-10-29T05:08:57.414Z,0
2017-10-29T05:09:58.024Z,0
2017-10-29T05:10:58.628Z,0
2017-10-29T05:11:59.241Z,0
2017-10-29T05:12:59.846Z,0
2017-10-29T05:14:00.459Z,0
2017-10-29T05:15:01.070Z,0
2017-10-29T05:16:01.674Z,0
2017-10-29T05:17:02.282Z,0
2017-10-29T05:18:02.898Z,0
2017-10-29T05:19:03.510Z,0
2017-10-29T05:20:04.115Z,0
2017-10-29T05:21:04.720Z,0
2017-10-29T05:22:05.331Z,0
2017-10-29T05:23:05.940Z,0
2017-10-29T05:24:06.557Z,0
2017-10-29T05:25:07.195Z,0
2017-10-29T05:26:07.797Z,0
2017-10-29T05:27:08.405Z,0
2017-10-29T05:28:09.012Z,0
2017-10-29T05:29:09.623Z,0
2017-10-29T05:30:10.268Z,0
2017-10-29T05:31:10.874Z,0
2017-10-29T05:32:11.485Z,0
2017-10-29T05:33:12.094Z,0
2017-10-29T05:34:12.701Z,0
2017-10-29T05:35:13.335Z,0
2017-10-29T05:36:13.946Z,0
2017-10-29T05:37:14.588Z,0
2017-10-29T05:38:15.188Z,0
2017-10-29T05:39:15.795Z,0
2017-10-29T05:40:16.408Z,0
2017-10-29T05:41:17.045Z,0
2017-10-29T05:42:17.652Z,0
2017-10-29T05:43:18.288Z,0
2017-10-29T05:44:18.895Z,0
2017-10-29T05:45:19.503Z,0
2017-10-29T05:46:20.111Z,0
2017-10-29T05:47:20.723Z,0
2017-10-29T05:48:21.328Z,0
2017-10-29T05:49:21.934Z,0
2017-10-29T05:50:22.540Z,0
2017-10-29T05:51:23.149Z,0
2017-10-29T05:52:23.756Z,0
2017-10-29T05:53:24.368Z,0
2017-10-29T05:54:24.975Z,0
2017-10-29T05:55:25.583Z,0
2017-10-29T05:56:26.204Z,0
2017-10-29T05:57:26.801Z,0
2017-10-29T05:58:27.442Z,0
2017-10-29T05:59:28.048Z,0
2017-10-29T06:00:28.654Z,4
2017-10-29T06:01:29.264Z,0
2017-10-29T06:02:29.869Z,0
2017-10-29T06:03:30.476Z,0
2017-10-29T06:04:31.088Z,0
2017-10-29T06:05:31.697Z,0
2017-10-29T06:06:32.301Z,4
2017-10-29T06:07:32.911Z,0
2017-10-29T06:08:33.518Z,0
2017-10-29T06:09:34.132Z,0
2017-10-29T06:10:34.737Z,4
2017-10-29T06:11:35.343Z,4
2017-10-29T06:12:35.951Z,0
2017-10-29T06:13:36.564Z,4
2017-10-29T06:14:37.168Z,4
2017-10-29T06:15:37.834Z,4
2017-10-29T06:16:38.415Z,4
2017-10-29T06:17:39.026Z,4
2017-10-29T06:18:39.660Z,4
2017-10-29T06:19:40.306Z,8
2017-10-29T06:20:40.944Z,8
2017-10-29T06:21:41.549Z,4
2017-10-29T06:22:42.159Z,8
2017-10-29T06:23:42.771Z,8
2017-10-29T06:24:43.377Z,12
2017-10-29T06:25:44.015Z,8
2017-10-29T06:26:44.653Z,8
2017-10-29T06:27:45.263Z,12
2017-10-29T06:28:45.872Z,12
2017-10-29T06:29:46.481Z,8
2017-10-29T06:30:47.124Z,8
2017-10-29T06:31:47.728Z,12
2017-10-29T06:32:48.336Z,16
2017-10-29T06:33:48.950Z,12
2017-10-29T06:34:49.557Z,16
2017-10-29T06:35:50.165Z,12
2017-10-29T06:36:50.773Z,16
2017-10-29T06:37:51.417Z,16
2017-10-29T06:38:52.023Z,12
2017-10-29T06:39:52.631Z,12
2017-10-29T06:40:53.241Z,12
2017-10-29T06:41:53.851Z,16
2017-10-29T06:42:54.461Z,16
2017-10-29T06:43:55.073Z,16
2017-10-29T06:44:55.684Z,16
2017-10-29T06:45:56.322Z,16
2017-10-29T06:46:56.934Z,16
2017-10-29T06:47:57.544Z,16
2017-10-29T06:48:58.149Z,16
2017-10-29T06:49:58.757Z,16
2017-10-29T06:50:59.401Z,16
2017-10-29T06:52:00.041Z,20
2017-10-29T06:53:00.616Z,20
2017-10-29T06:54:01.225Z,24
2017-10-29T06:55:01.833Z,24
2017-10-29T06:56:02.442Z,24
2017-10-29T06:57:03.051Z,24
2017-10-29T06:58:03.660Z,28
2017-10-29T06:59:04.273Z,28
2017-10-29T07:00:04.879Z,24
2017-10-29T07:01:05.517Z,24
2017-10-29T07:02:06.126Z,28
2017-10-29T07:03:06.735Z,32
2017-10-29T07:04:07.350Z,28
2017-10-29T07:05:07.955Z,28
2017-10-29T07:06:08.568Z,32
2017-10-29T07:07:09.174Z,32
2017-10-29T07:08:09.786Z,32
2017-10-29T07:09:10.425Z,32
2017-10-29T07:10:11.035Z,32
2017-10-29T07:11:11.652Z,32
2017-10-29T07:12:12.257Z,32
2017-10-29T07:13:12.870Z,32
2017-10-29T07:14:13.484Z,32
2017-10-29T07:15:14.089Z,36
2017-10-29T07:16:14.698Z,36
2017-10-29T07:17:15.316Z,36
2017-10-29T07:18:15.919Z,36
2017-10-29T07:19:16.528Z,36
2017-10-29T07:20:17.143Z,32
2017-10-29T07:21:17.746Z,40
2017-10-29T07:22:18.360Z,40
2017-10-29T07:23:18.964Z,40
2017-10-29T07:24:19.573Z,40
2017-10-29T07:25:20.181Z,40
2017-10-29T07:26:20.797Z,44
2017-10-29T07:27:21.403Z,40
2017-10-29T07:28:22.019Z,40
2017-10-29T07:29:22.623Z,44
2017-10-29T07:30:23.239Z,44
2017-10-29T07:31:23.882Z,40
2017-10-29T07:32:24.488Z,48
2017-10-29T07:33:25.127Z,44
2017-10-29T07:34:25.736Z,44
2017-10-29T07:35:26.351Z,48
2017-10-29T07:36:26.993Z,48
2017-10-29T07:37:27.599Z,48
2017-10-29T07:38:28.213Z,52
2017-10-29T07:39:28.818Z,52
2017-10-29T07:40:29.459Z,52
2017-10-29T07:41:30.071Z,52
2017-10-29T07:42:30.679Z,52
2017-10-29T07:43:31.289Z,52
2017-10-29T07:44:31.898Z,44
2017-10-29T07:45:32.515Z,48
2017-10-29T07:46:33.117Z,56
2017-10-29T07:47:33.755Z,56
2017-10-29T07:48:34.363Z,52
2017-10-29T07:49:34.974Z,52
2017-10-29T07:50:35.586Z,48
2017-10-29T07:51:36.193Z,52
2017-10-29T07:52:36.804Z,56
2017-10-29T07:53:37.450Z,60
2017-10-29T07:54:38.056Z,60
2017-10-29T07:55:38.664Z,60
2017-10-29T07:56:39.272Z,56
2017-10-29T07:57:39.889Z,56
2017-10-29T07:58:40.498Z,64
2017-10-29T07:59:41.106Z,72
2017-10-29T08:00:41.720Z,72
2017-10-29T08:01:42.327Z,80
2017-10-29T08:02:42.942Z,96
2017-10-29T08:03:43.548Z,104
2017-10-29T08:04:44.158Z,100
2017-10-29T08:05:44.773Z,92
2017-10-29T08:06:45.381Z,88
2017-10-29T08:07:45.990Z,88
2017-10-29T08:08:46.598Z,72
2017-10-29T08:09:47.213Z,68
2017-10-29T08:10:47.819Z,68
2017-10-29T08:11:48.426Z,68
2017-10-29T08:12:49.047Z,68
2017-10-29T08:13:49.662Z,76
2017-10-29T08:14:50.302Z,68
2017-10-29T08:15:50.921Z,68
2017-10-29T08:16:51.529Z,72
2017-10-29T08:17:52.173Z,88
2017-10-29T08:18:52.785Z,96
2017-10-29T08:19:53.392Z,84
2017-10-29T08:20:54.007Z,68
2017-10-29T08:21:54.611Z,64
2017-10-29T08:22:55.219Z,64
2017-10-29T08:23:55.831Z,60
2017-10-29T08:24:56.445Z,56
2017-10-29T08:25:57.049Z,64
2017-10-29T08:26:57.660Z,68
2017-10-29T08:27:58.267Z,64
2017-10-29T08:28:58.878Z,76
2017-10-29T08:29:59.486Z,80
2017-10-29T08:31:00.096Z,84
2017-10-29T08:32:00.703Z,84
2017-10-29T08:33:01.317Z,80
2017-10-29T08:34:01.931Z,84
2017-10-29T08:35:02.538Z,92
2017-10-29T08:36:03.150Z,104
2017-10-29T08:37:03.760Z,104
2017-10-29T08:38:04.371Z,104
2017-10-29T08:39:04.983Z,108
2017-10-29T08:40:05.597Z,108
2017-10-29T08:41:06.209Z,124
2017-10-29T08:42:06.821Z,140
2017-10-29T08:43:07.431Z,148
2017-10-29T08:44:08.048Z,148
2017-10-29T08:45:08.657Z,156
2017-10-29T08:46:09.266Z,160
2017-10-29T08:47:09.878Z,160
2017-10-29T08:48:10.489Z,140
2017-10-29T08:49:11.104Z,116
2017-10-29T08:50:11.719Z,108
2017-10-29T08:51:12.330Z,116
2017-10-29T08:52:12.946Z,116
2017-10-29T08:53:13.560Z,124
2017-10-29T08:54:14.205Z,124
2017-10-29T08:55:14.816Z,108
2017-10-29T08:56:15.465Z,104
2017-10-29T08:57:16.074Z,116
2017-10-29T08:58:16.685Z,132
2017-10-29T08:59:17.298Z,152
2017-10-29T09:00:17.909Z,156
2017-10-29T09:01:18.520Z,148
2017-10-29T09:02:19.130Z,120
2017-10-29T09:03:19.748Z,120
2017-10-29T09:04:20.355Z,116
2017-10-29T09:05:20.970Z,120
2017-10-29T09:06:21.582Z,120
2017-10-29T09:07:22.199Z,116
2017-10-29T09:08:22.815Z,112
2017-10-29T09:09:23.420Z,124
2017-10-29T09:10:24.038Z,124
2017-10-29T09:11:24.647Z,128
2017-10-29T09:12:25.264Z,132
2017-10-29T09:13:25.872Z,132
2017-10-29T09:14:26.492Z,148
2017-10-29T09:15:27.132Z,144
2017-10-29T09:16:27.741Z,136
2017-10-29T09:17:28.353Z,132
2017-10-29T09:18:28.964Z,136
2017-10-29T09:19:29.574Z,124
2017-10-29T09:20:30.186Z,124
2017-10-29T09:21:30.833Z,120
2017-10-29T09:22:31.442Z,108
2017-10-29T09:23:32.051Z,112
2017-10-29T09:24:32.667Z,120
2017-10-29T09:25:33.296Z,128
2017-10-29T09:26:33.898Z,144
2017-10-29T09:27:34.523Z,156
2017-10-29T09:28:35.127Z,180
2017-10-29T09:29:35.738Z,200
2017-10-29T09:30:36.350Z,180
2017-10-29T09:31:36.962Z,140
2017-10-29T09:32:37.574Z,116
2017-10-29T09:33:38.188Z,108
2017-10-29T09:34:38.810Z,112
2017-10-29T09:35:39.417Z,120
2017-10-29T09:36:40.032Z,124
2017-10-29T09:37:40.674Z,104
2017-10-29T09:38:41.289Z,112
2017-10-29T09:39:41.902Z,128
2017-10-29T09:40:42.545Z,140
2017-10-29T09:41:43.189Z,140
2017-10-29T09:42:43.803Z,144
2017-10-29T09:43:44.415Z,136
2017-10-29T09:44:45.057Z,148
2017-10-29T09:45:45.679Z,152
2017-10-29T09:46:46.288Z,136
2017-10-29T09:47:46.900Z,136
2017-10-29T09:48:47.539Z,128
2017-10-29T09:49:48.151Z,128
2017-10-29T09:50:48.763Z,124
2017-10-29T09:51:49.379Z,128
2017-10-29T09:52:49.995Z,128
2017-10-29T09:53:50.607Z,124
2017-10-29T09:54:51.219Z,120
2017-10-29T09:55:51.838Z,124
2017-10-29T09:56:52.478Z,124
2017-10-29T09:57:53.096Z,140
2017-10-29T09:58:53.745Z,168
2017-10-29T09:59:54.356Z,152
2017-10-29T10:00:54.967Z,136
2017-10-29T10:01:55.579Z,160
2017-10-29T10:02:56.196Z,180
2017-10-29T10:03:56.815Z,196
2017-10-29T10:04:57.454Z,188
2017-10-29T10:05:58.066Z,164
2017-10-29T10:06:58.678Z,156
2017-10-29T10:07:59.297Z,160
2017-10-29T10:08:59.906Z,176
2017-10-29T10:10:00.520Z,192
2017-10-29T10:11:01.132Z,168
2017-10-29T10:12:01.749Z,180
2017-10-29T10:13:02.363Z,180
2017-10-29T10:14:02.982Z,184
2017-10-29T10:15:03.624Z,196
2017-10-29T10:16:04.251Z,204
2017-10-29T10:17:04.861Z,164
2017-10-29T10:18:05.471Z,144
2017-10-29T10:19:06.091Z,152
2017-10-29T10:20:06.735Z,156
2017-10-29T10:21:07.349Z,156
2017-10-29T10:22:07.960Z,160
2017-10-29T10:23:08.578Z,208
2017-10-29T10:24:09.188Z,216
2017-10-29T10:25:09.800Z,180
2017-10-29T10:26:10.413Z,152
2017-10-29T10:27:11.083Z,156
2017-10-29T10:28:11.699Z,160
2017-10-29T10:29:12.339Z,160
2017-10-29T10:30:12.952Z,188
2017-10-29T10:31:13.603Z,620
2017-10-29T10:32:14.246Z,236
2017-10-29T10:33:14.859Z,376
2017-10-29T10:34:15.469Z,400
2017-10-29T10:35:16.084Z,252
2017-10-29T10:36:16.703Z,280
2017-10-29T10:37:17.312Z,260
2017-10-29T10:38:17.925Z,220
2017-10-29T10:39:18.537Z,208
2017-10-29T10:40:19.151Z,176
2017-10-29T10:41:19.800Z,152
2017-10-29T10:42:20.445Z,152
2017-10-29T10:43:21.047Z,176
2017-10-29T10:44:21.660Z,208
2017-10-29T10:45:22.279Z,204
2017-10-29T10:46:22.895Z,152
2017-10-29T10:47:23.501Z,156
2017-10-29T10:48:24.121Z,192
2017-10-29T10:49:24.731Z,224
2017-10-29T10:50:25.348Z,216
2017-10-29T10:51:25.958Z,160
2017-10-29T10:52:26.571Z,152
2017-10-29T10:53:27.188Z,176
2017-10-29T10:54:27.835Z,192
2017-10-29T10:55:28.451Z,216
2017-10-29T10:56:29.066Z,216
2017-10-29T10:57:29.676Z,160
2017-10-29T10:58:30.290Z,116
2017-10-29T10:59:30.903Z,124
2017-10-29T11:00:31.515Z,160
2017-10-29T11:01:32.127Z,168
2017-10-29T11:02:32.748Z,172
2017-10-29T11:03:33.360Z,212
2017-10-29T11:04:33.976Z,192
2017-10-29T11:05:34.583Z,164
2017-10-29T11:06:35.195Z,144
2017-10-29T11:07:35.809Z,132
2017-10-29T11:08:36.421Z,136
2017-10-29T11:09:37.032Z,180
2017-10-29T11:10:37.644Z,240
2017-10-29T11:11:38.257Z,232
2017-10-29T11:12:38.871Z,200
2017-10-29T11:13:39.488Z,240
2017-10-29T11:14:40.130Z,272
2017-10-29T11:15:40.742Z,280
2017-10-29T11:16:41.356Z,272
2017-10-29T11:17:41.973Z,444
2017-10-29T11:18:42.587Z,196
2017-10-29T11:19:43.204Z,156
2017-10-29T11:20:43.819Z,156
2017-10-29T11:21:44.428Z,176
2017-10-29T11:22:45.048Z,192
2017-10-29T11:23:45.664Z,212
2017-10-29T11:24:46.307Z,252
2017-10-29T11:25:46.927Z,224
2017-10-29T11:26:47.538Z,232
2017-10-29T11:27:48.153Z,248
2017-10-29T11:28:48.792Z,288
2017-10-29T11:29:49.383Z,196
2017-10-29T11:30:49.996Z,188
2017-10-29T11:31:50.604Z,164
2017-10-29T11:32:51.216Z,156
2017-10-29T11:33:51.828Z,184
2017-10-29T11:34:52.445Z,220
2017-10-29T11:35:53.056Z,200
2017-10-29T11:36:53.672Z,216
2017-10-29T11:37:54.304Z,200
2017-10-29T11:38:54.895Z,160
2017-10-29T11:39:55.509Z,164
2017-10-29T11:40:56.124Z,156
2017-10-29T11:41:56.764Z,168
2017-10-29T11:42:57.377Z,192
2017-10-29T11:43:57.988Z,224
2017-10-29T11:44:58.599Z,176
2017-10-29T11:45:59.214Z,168
2017-10-29T11:46:59.829Z,188
2017-10-29T11:48:00.439Z,184
2017-10-29T11:49:01.088Z,160
2017-10-29T11:50:01.698Z,172
2017-10-29T11:51:02.310Z,216
2017-10-29T11:52:02.924Z,236
2017-10-29T11:53:03.535Z,180
2017-10-29T11:54:04.154Z,160
2017-10-29T11:55:04.765Z,196
2017-10-29T11:56:05.382Z,184
2017-10-29T11:57:05.991Z,188
2017-10-29T11:58:06.657Z,168
2017-10-29T11:59:07.266Z,152
2017-10-29T12:00:07.885Z,160
2017-10-29T12:01:08.495Z,192
2017-10-29T12:02:09.108Z,220
2017-10-29T12:03:09.733Z,188
2017-10-29T12:04:10.341Z,200
2017-10-29T12:05:10.956Z,248
2017-10-29T12:06:11.566Z,288
2017-10-29T12:07:12.179Z,304
2017-10-29T12:08:12.790Z,252
2017-10-29T12:09:13.402Z,188
2017-10-29T12:10:14.015Z,176
2017-10-29T12:11:14.627Z,188
2017-10-29T12:12:15.252Z,196
2017-10-29T12:13:15.856Z,224
2017-10-29T12:14:16.469Z,256
2017-10-29T12:15:17.080Z,228
2017-10-29T12:16:17.729Z,192
2017-10-29T12:17:18.344Z,192
2017-10-29T12:18:18.960Z,208
2017-10-29T12:19:19.571Z,204
2017-10-29T12:20:20.182Z,184
2017-10-29T12:21:20.796Z,156
2017-10-29T12:22:21.436Z,132
2017-10-29T12:23:22.050Z,120
2017-10-29T12:24:22.661Z,112
2017-10-29T12:25:23.277Z,108
2017-10-29T12:26:23.887Z,112
2017-10-29T12:27:24.499Z,116
2017-10-29T12:28:25.117Z,112
2017-10-29T12:29:25.726Z,104
2017-10-29T12:30:26.343Z,100
2017-10-29T12:31:26.951Z,104
2017-10-29T12:32:27.568Z,120
2017-10-29T12:33:28.179Z,128
2017-10-29T12:34:28.798Z,156
2017-10-29T12:35:29.407Z,180
2017-10-29T12:36:30.054Z,200
2017-10-29T12:37:30.664Z,228
2017-10-29T12:38:31.274Z,352
2017-10-29T12:39:31.891Z,212
2017-10-29T12:40:32.500Z,772
2017-10-29T12:41:33.113Z,132
2017-10-29T12:42:33.756Z,132
2017-10-29T12:43:34.370Z,172
2017-10-29T12:44:34.983Z,212
2017-10-29T12:45:35.628Z,220
2017-10-29T12:46:36.244Z,200
2017-10-29T12:47:36.854Z,144
2017-10-29T12:48:37.466Z,136
2017-10-29T12:49:38.078Z,128
2017-10-29T12:50:38.690Z,128
2017-10-29T12:51:39.303Z,144
2017-10-29T12:52:39.915Z,160
2017-10-29T12:53:40.528Z,132
2017-10-29T12:54:41.139Z,140
2017-10-29T12:55:41.752Z,140
2017-10-29T12:56:42.369Z,120
2017-10-29T12:57:42.985Z,120
2017-10-29T12:58:43.596Z,124
2017-10-29T12:59:44.209Z,120
2017-10-29T13:00:44.822Z,104
2017-10-29T13:01:45.462Z,96
2017-10-29T13:02:46.074Z,104
2017-10-29T13:03:46.686Z,116
2017-10-29T13:04:47.297Z,104
2017-10-29T13:05:47.937Z,96
2017-10-29T13:06:48.548Z,104
2017-10-29T13:07:49.163Z,104
2017-10-29T13:08:49.778Z,88
2017-10-29T13:09:50.390Z,76
2017-10-29T13:10:50.996Z,76
2017-10-29T13:11:51.612Z,76
2017-10-29T13:12:52.220Z,76
2017-10-29T13:13:52.829Z,68
2017-10-29T13:14:53.440Z,64
2017-10-29T13:15:54.049Z,64
2017-10-29T13:16:54.661Z,60
2017-10-29T13:17:55.278Z,52
2017-10-29T13:18:55.886Z,52
2017-10-29T13:19:56.526Z,60
2017-10-29T13:20:57.137Z,64
2017-10-29T13:21:57.748Z,72
2017-10-29T13:22:58.356Z,80
2017-10-29T13:23:59.024Z,76
2017-10-29T13:24:59.629Z,56
2017-10-29T13:26:00.244Z,48
2017-10-29T13:27:00.853Z,48
2017-10-29T13:28:01.471Z,56
2017-10-29T13:29:02.077Z,60
2017-10-29T13:30:02.720Z,60
2017-10-29T13:31:03.329Z,64
2017-10-29T13:32:03.975Z,60
2017-10-29T13:33:04.581Z,64
2017-10-29T13:34:05.189Z,64
2017-10-29T13:35:05.804Z,60
2017-10-29T13:36:06.413Z,56
2017-10-29T13:37:07.022Z,64
2017-10-29T13:38:07.631Z,68
2017-10-29T13:39:08.271Z,64
2017-10-29T13:40:08.887Z,56
2017-10-29T13:41:09.527Z,56
2017-10-29T13:42:10.141Z,52
2017-10-29T13:43:10.752Z,52
2017-10-29T13:44:11.363Z,60
2017-10-29T13:45:11.979Z,68
2017-10-29T13:46:12.593Z,60
2017-10-29T13:47:13.201Z,52
2017-10-29T13:48:13.812Z,44
2017-10-29T13:49:14.421Z,44
2017-10-29T13:50:15.031Z,44
2017-10-29T13:51:15.669Z,48
2017-10-29T13:52:16.280Z,44
2017-10-29T13:53:16.889Z,48
2017-10-29T13:54:17.504Z,48
2017-10-29T13:55:18.115Z,56
2017-10-29T13:56:18.730Z,60
2017-10-29T13:57:19.337Z,68
2017-10-29T13:58:19.947Z,72
2017-10-29T13:59:20.563Z,72
2017-10-29T14:00:21.173Z,60
2017-10-29T14:01:21.779Z,56
2017-10-29T14:02:22.387Z,56
2017-10-29T14:03:23.002Z,56
2017-10-29T14:04:23.615Z,68
2017-10-29T14:05:24.239Z,80
2017-10-29T14:06:24.849Z,76
2017-10-29T14:07:25.467Z,80
2017-10-29T14:08:26.081Z,64
2017-10-29T14:09:26.696Z,64
2017-10-29T14:10:27.302Z,68
2017-10-29T14:11:27.944Z,68
2017-10-29T14:12:28.557Z,68
2017-10-29T14:13:29.165Z,68
2017-10-29T14:14:29.781Z,64
2017-10-29T14:15:30.388Z,64
2017-10-29T14:16:31.032Z,60
2017-10-29T14:17:31.671Z,60
2017-10-29T14:18:32.281Z,60
2017-10-29T14:19:32.921Z,64
2017-10-29T14:20:33.531Z,60
2017-10-29T14:21:34.174Z,64
2017-10-29T14:22:34.783Z,72
2017-10-29T14:23:35.422Z,72
2017-10-29T14:24:36.034Z,72
2017-10-29T14:25:36.644Z,72
2017-10-29T14:26:37.253Z,68
2017-10-29T14:27:37.868Z,64
2017-10-29T14:28:38.480Z,56